createdAt,value
2023-03-31T00:00:23.129Z,18.00
2023-03-31T00:02:55.695Z,17.52
2023-03-31T00:05:26.298Z,18.25
2023-03-31T00:08:02.796Z,18.23
2023-03-31T00:10:36.531Z,16.95
2023-03-31T00:13:15.370Z,18.63
2023-03-31T00:15:45.226Z,16.15
2023-03-31T00:18:15.076Z,15.48
2023-03-31T00:20:47.691Z,15.50
2023-03-31T00:23:17.538Z,14.70
2023-03-31T00:25:47.500Z,13.30
2023-03-31T00:28:17.432Z,14.75
2023-03-31T00:30:48.704Z,16.40
2023-03-31T00:33:18.768Z,14.90
2023-03-31T00:35:48.561Z,13.65
2023-03-31T00:38:18.296Z,16.90
2023-03-31T00:40:49.550Z,16.73
2023-03-31T00:43:37.830Z,18.55
2023-03-31T00:46:22.942Z,47.95
2023-03-31T00:48:55.146Z,37.63
2023-03-31T00:51:25.228Z,38.15
2023-03-31T00:54:01.348Z,42.15
2023-03-31T00:56:32.506Z,46.72
2023-03-31T00:59:05.284Z,50.78
2023-03-31T01:01:40.328Z,55.58
2023-03-31T01:04:11.358Z,75.43
2023-03-31T01:06:43.966Z,57.80
2023-03-31T01:09:14.124Z,54.90
2023-03-31T01:11:43.854Z,54.95
2023-03-31T01:14:16.408Z,53.65
2023-03-31T01:16:46.227Z,47.17
2023-03-31T01:19:30.225Z,47.63
2023-03-31T01:22:23.037Z,41.50
2023-03-31T01:25:34.326Z,39.40
2023-03-31T01:28:38.664Z,41.72
2023-03-31T01:31:35.786Z,41.45
2023-03-31T01:34:23.682Z,43.42
2023-03-31T01:37:03.191Z,46.97
2023-03-31T01:39:59.864Z,42.72
2023-03-31T01:42:38.635Z,42.42
2023-03-31T01:45:18.274Z,44.20
2023-03-31T01:48:08.395Z,40.35
2023-03-31T01:50:49.642Z,39.60
2023-03-31T01:53:32.332Z,44.53
2023-03-31T01:56:17.990Z,42.83
2023-03-31T01:59:06.058Z,40.63
2023-03-31T02:01:45.954Z,41.95
2023-03-31T02:04:27.513Z,41.17
2023-03-31T02:07:06.597Z,43.13
2023-03-31T02:09:40.289Z,40.22
2023-03-31T02:12:11.769Z,35.53
2023-03-31T02:14:44.761Z,36.03
2023-03-31T02:17:19.712Z,36.42
2023-03-31T02:19:51.608Z,35.35
2023-03-31T02:22:21.316Z,37.17
2023-03-31T02:24:51.044Z,31.67
2023-03-31T02:27:32.114Z,34.95
2023-03-31T02:30:06.215Z,30.67
2023-03-31T02:32:43.797Z,29.80
2023-03-31T02:35:17.697Z,28.52
2023-03-31T02:37:51.392Z,24.90
2023-03-31T02:40:23.478Z,30.05
2023-03-31T02:42:53.900Z,29.70
2023-03-31T02:45:54.011Z,27.98
2023-03-31T02:48:25.422Z,28.45
2023-03-31T02:51:04.192Z,24.83
2023-03-31T02:53:43.051Z,26.33
2023-03-31T02:56:38.179Z,24.80
2023-03-31T02:59:14.002Z,28.40
2023-03-31T03:02:17.383Z,27.30
2023-03-31T03:05:21.716Z,27.05
2023-03-31T03:08:12.750Z,26.80
2023-03-31T03:10:51.368Z,23.30
2023-03-31T03:13:49.630Z,24.65
2023-03-31T03:16:27.498Z,25.38
2023-03-31T03:19:04.001Z,22.48
2023-03-31T03:21:33.810Z,30.23
2023-03-31T03:24:03.531Z,24.25
2023-03-31T03:26:36.814Z,22.30
2023-03-31T03:29:06.783Z,25.45
2023-03-31T03:31:37.845Z,31.05
2023-03-31T03:34:08.661Z,22.48
2023-03-31T03:36:45.036Z,24.27
2023-03-31T03:39:14.867Z,25.45
2023-03-31T03:41:44.642Z,26.58
2023-03-31T03:44:14.500Z,25.08
2023-03-31T03:46:44.380Z,21.38
2023-03-31T03:49:14.083Z,24.58
2023-03-31T03:51:43.752Z,21.20
2023-03-31T03:54:13.511Z,23.45
2023-03-31T03:56:43.165Z,24.45
2023-03-31T03:59:13.895Z,21.38
2023-03-31T04:01:51.785Z,21.67
2023-03-31T04:04:28.496Z,22.33
2023-03-31T04:07:01.073Z,24.25
2023-03-31T04:09:34.037Z,26.55
2023-03-31T04:12:06.818Z,20.83
2023-03-31T04:14:44.997Z,20.33
2023-03-31T04:17:17.327Z,22.35
2023-03-31T04:19:55.867Z,22.48
2023-03-31T04:22:30.580Z,23.42
2023-03-31T04:25:05.275Z,21.80
2023-03-31T04:27:40.446Z,22.48
2023-03-31T04:30:18.107Z,24.63
2023-03-31T04:32:58.614Z,19.92
2023-03-31T04:36:00.055Z,17.27
2023-03-31T04:38:38.640Z,20.90
2023-03-31T04:41:15.262Z,20.75
2023-03-31T04:43:47.812Z,42.33
2023-03-31T04:46:22.428Z,37.55
2023-03-31T04:48:53.506Z,37.55
2023-03-31T04:51:29.193Z,28.77
2023-03-31T04:54:05.679Z,23.95
2023-03-31T04:56:36.742Z,21.48
2023-03-31T04:59:08.189Z,21.92
2023-03-31T05:01:50.397Z,20.25
2023-03-31T05:04:30.175Z,20.90
2023-03-31T05:07:04.708Z,18.38
2023-03-31T05:09:38.003Z,16.37
2023-03-31T05:12:14.137Z,16.65
2023-03-31T05:14:51.886Z,19.90
2023-03-31T05:17:23.005Z,15.38
2023-03-31T05:20:00.131Z,15.55
2023-03-31T05:22:32.686Z,15.45
2023-03-31T05:25:09.765Z,14.07
2023-03-31T05:27:49.591Z,14.52
2023-03-31T05:30:23.575Z,15.00
2023-03-31T05:32:58.660Z,12.43
2023-03-31T05:35:33.869Z,14.02
2023-03-31T05:38:03.572Z,14.52
2023-03-31T05:40:39.274Z,15.10
2023-03-31T05:43:10.126Z,15.45
2023-03-31T05:45:45.741Z,14.05
2023-03-31T05:48:16.871Z,12.50
2023-03-31T05:50:52.284Z,14.45
2023-03-31T05:56:05.863Z,12.02
2023-03-31T05:58:42.635Z,11.05
2023-03-31T06:01:18.946Z,13.38
2023-03-31T06:03:50.260Z,14.93
2023-03-31T06:06:23.863Z,55.40
2023-03-31T06:09:04.173Z,41.65
2023-03-31T06:11:34.778Z,31.30
2023-03-31T06:14:06.569Z,39.90
2023-03-31T06:16:38.583Z,42.13
2023-03-31T06:19:11.952Z,26.67
2023-03-31T06:21:45.785Z,26.15
2023-03-31T06:24:19.489Z,33.65
2023-03-31T06:26:54.056Z,26.70
2023-03-31T06:29:29.134Z,29.03
2023-03-31T06:32:02.772Z,24.65
2023-03-31T06:34:38.232Z,23.90
2023-03-31T06:39:41.420Z,20.73
2023-03-31T06:42:12.261Z,21.70
2023-03-31T06:44:46.954Z,24.38
2023-03-31T06:47:24.874Z,24.58
2023-03-31T06:49:57.534Z,17.40
2023-03-31T06:52:36.615Z,17.42
2023-03-31T06:55:07.475Z,16.80
2023-03-31T06:57:38.762Z,18.02
2023-03-31T07:00:11.678Z,18.05
2023-03-31T07:02:47.925Z,17.40
2023-03-31T07:05:18.498Z,18.02
2023-03-31T07:07:50.188Z,15.63
2023-03-31T07:10:19.968Z,17.05
2023-03-31T07:12:50.850Z,14.35
2023-03-31T07:15:22.938Z,19.52
2023-03-31T07:17:57.847Z,22.67
2023-03-31T07:20:28.957Z,13.77
2023-03-31T07:23:01.753Z,19.25
2023-03-31T07:25:34.258Z,13.43
2023-03-31T07:28:08.955Z,18.60
2023-03-31T07:30:40.561Z,18.07
2023-03-31T07:33:12.363Z,16.20
2023-03-31T07:35:43.066Z,17.30
2023-03-31T07:38:14.209Z,16.50
2023-03-31T07:40:55.696Z,15.60
2023-03-31T07:43:31.795Z,14.45
2023-03-31T07:46:02.366Z,14.05
2023-03-31T07:48:32.558Z,17.83
2023-03-31T07:51:05.655Z,17.02
2023-03-31T07:53:40.509Z,17.70
2023-03-31T07:56:11.231Z,15.83
2023-03-31T07:58:40.900Z,15.57
2023-03-31T08:01:11.649Z,18.27
2023-03-31T08:03:42.987Z,14.25
2023-03-31T08:06:19.779Z,16.02
2023-03-31T08:08:53.163Z,15.60
2023-03-31T08:11:25.590Z,14.40
2023-03-31T08:13:55.792Z,16.63
2023-03-31T08:16:27.631Z,19.38
2023-03-31T08:19:03.885Z,15.85
2023-03-31T08:21:34.084Z,17.02
2023-03-31T08:24:04.660Z,19.70
2023-03-31T08:26:36.588Z,15.35
2023-03-31T08:29:09.575Z,15.75
2023-03-31T08:31:39.444Z,20.17
2023-03-31T08:34:09.699Z,16.85
2023-03-31T08:36:39.359Z,20.48
2023-03-31T08:39:09.663Z,21.35
2023-03-31T08:42:02.368Z,19.35
2023-03-31T08:44:58.246Z,19.25
2023-03-31T08:47:29.492Z,19.77
2023-03-31T08:50:03.064Z,20.70
2023-03-31T08:52:39.077Z,18.70
2023-03-31T08:55:12.563Z,21.23
2023-03-31T08:58:00.359Z,20.92
2023-03-31T09:00:30.065Z,20.00
2023-03-31T09:03:09.600Z,19.27
2023-03-31T09:05:52.971Z,19.13
2023-03-31T09:08:42.528Z,17.42
2023-03-31T09:11:15.804Z,17.15
2023-03-31T09:14:20.312Z,20.30
2023-03-31T09:17:15.193Z,18.02
2023-03-31T09:19:46.451Z,19.13
2023-03-31T09:22:19.945Z,19.35
2023-03-31T09:25:01.275Z,22.67
2023-03-31T09:27:33.403Z,19.38
2023-03-31T09:30:12.960Z,19.58
2023-03-31T09:32:42.633Z,19.80
2023-03-31T09:35:27.203Z,18.02
2023-03-31T09:37:56.978Z,20.45
2023-03-31T09:40:28.275Z,22.13
2023-03-31T09:43:03.784Z,20.52
2023-03-31T09:45:35.489Z,20.73
2023-03-31T09:48:08.537Z,19.73
2023-03-31T09:50:53.080Z,19.55
2023-03-31T09:53:45.705Z,18.83
2023-03-31T09:56:15.871Z,19.42
2023-03-31T09:58:47.754Z,18.23
2023-03-31T10:01:17.755Z,18.45
2023-03-31T10:03:57.571Z,18.58
2023-03-31T10:06:28.284Z,20.02
2023-03-31T10:09:03.766Z,21.45
2023-03-31T10:14:06.781Z,19.50
2023-03-31T10:16:45.407Z,18.55
2023-03-31T10:19:24.940Z,20.40
2023-03-31T10:22:20.960Z,18.45
2023-03-31T10:24:51.983Z,17.10
2023-03-31T10:27:24.107Z,20.13
2023-03-31T10:30:13.573Z,18.23
2023-03-31T10:32:48.083Z,19.92
2023-03-31T10:35:26.601Z,17.73
2023-03-31T10:38:06.673Z,17.67
2023-03-31T10:40:36.433Z,16.52
2023-03-31T10:43:20.086Z,18.88
2023-03-31T10:45:57.799Z,18.75
2023-03-31T10:48:30.088Z,18.45
2023-03-31T10:51:28.336Z,17.48
2023-03-31T10:53:59.377Z,21.40
2023-03-31T10:56:42.197Z,19.52
2023-03-31T10:59:36.200Z,16.77
2023-03-31T11:02:30.875Z,18.80
2023-03-31T11:05:02.968Z,17.25
2023-03-31T11:08:09.009Z,16.20
2023-03-31T11:10:56.898Z,18.60
2023-03-31T11:14:01.207Z,21.92
2023-03-31T11:16:42.191Z,19.60
2023-03-31T11:19:20.619Z,18.45
2023-03-31T11:22:11.273Z,18.80
2023-03-31T11:25:17.129Z,18.77
2023-03-31T11:28:13.965Z,19.60
2023-03-31T11:30:53.702Z,19.38
2023-03-31T11:33:45.612Z,20.02
2023-03-31T11:36:38.457Z,16.45
2023-03-31T11:39:13.996Z,17.63
2023-03-31T11:41:56.352Z,19.45
2023-03-31T11:44:26.527Z,20.58
2023-03-31T11:47:02.790Z,19.77
2023-03-31T11:49:40.601Z,19.10
2023-03-31T11:52:17.632Z,18.30
2023-03-31T11:55:03.559Z,19.30
2023-03-31T11:57:43.808Z,22.52
2023-03-31T12:00:24.164Z,20.10
2023-03-31T12:03:12.786Z,20.73
2023-03-31T12:06:10.156Z,21.90
2023-03-31T12:08:40.020Z,19.83
2023-03-31T12:11:34.994Z,20.05
2023-03-31T12:14:32.039Z,19.58
2023-03-31T12:17:14.661Z,20.40
2023-03-31T12:19:54.949Z,23.95
2023-03-31T12:22:31.991Z,21.48
2023-03-31T12:25:01.986Z,21.17
2023-03-31T12:27:46.421Z,22.05
2023-03-31T12:30:20.465Z,20.55
2023-03-31T12:33:09.284Z,23.67
2023-03-31T12:35:48.141Z,21.80
2023-03-31T12:38:53.501Z,20.48
2023-03-31T12:41:28.684Z,21.08
2023-03-31T12:44:06.355Z,21.40
2023-03-31T12:46:42.125Z,22.73
2023-03-31T12:49:14.653Z,20.75
2023-03-31T12:52:02.510Z,21.27
2023-03-31T12:54:41.635Z,22.35
2023-03-31T12:57:11.375Z,24.63
2023-03-31T12:59:42.900Z,20.52
2023-03-31T13:02:13.874Z,23.00
2023-03-31T13:04:43.823Z,23.55
2023-03-31T13:07:40.698Z,20.58
2023-03-31T13:10:19.496Z,23.42
2023-03-31T13:13:19.667Z,21.65
2023-03-31T13:15:59.269Z,25.25
2023-03-31T13:18:36.616Z,22.90
2023-03-31T13:21:10.530Z,21.73
2023-03-31T13:23:40.102Z,23.08
2023-03-31T13:26:22.078Z,26.50
2023-03-31T13:29:15.332Z,20.35
2023-03-31T13:32:03.659Z,19.85
2023-03-31T13:35:25.218Z,19.08
2023-03-31T13:38:19.018Z,20.00
2023-03-31T13:41:29.604Z,23.23
2023-03-31T13:44:23.352Z,21.75
2023-03-31T13:46:56.705Z,22.85
2023-03-31T13:49:54.397Z,23.00
2023-03-31T13:52:47.579Z,24.17
2023-03-31T13:55:26.832Z,22.08
2023-03-31T13:58:32.888Z,22.27
2023-03-31T14:01:27.203Z,23.42
2023-03-31T14:04:19.115Z,22.00
2023-03-31T14:07:02.329Z,19.98
2023-03-31T14:09:38.085Z,22.65
2023-03-31T14:12:37.045Z,21.88
2023-03-31T14:15:08.688Z,21.33
2023-03-31T14:17:45.109Z,24.58
2023-03-31T14:20:35.878Z,22.95
2023-03-31T14:23:17.785Z,22.48
2023-03-31T14:26:07.181Z,30.38
2023-03-31T14:28:39.333Z,23.52
2023-03-31T14:31:27.256Z,23.70
2023-03-31T14:34:31.863Z,25.15
2023-03-31T14:37:08.653Z,22.73
2023-03-31T14:39:48.716Z,26.42
2023-03-31T14:42:31.107Z,25.60
2023-03-31T14:45:07.972Z,27.48
2023-03-31T14:47:38.584Z,24.98
2023-03-31T14:50:19.210Z,24.00
2023-03-31T14:52:52.869Z,25.67
2023-03-31T14:55:31.960Z,22.23
2023-03-31T14:58:14.303Z,23.15
2023-03-31T15:00:45.371Z,25.30
2023-03-31T15:03:20.476Z,22.58
2023-03-31T15:05:50.435Z,25.25
2023-03-31T15:08:25.223Z,25.52
2023-03-31T15:11:11.917Z,22.90
2023-03-31T15:14:05.140Z,23.63
2023-03-31T15:16:46.912Z,24.30
2023-03-31T15:19:50.162Z,22.65
2023-03-31T15:22:23.856Z,24.30
2023-03-31T15:25:00.465Z,21.95
2023-03-31T15:27:37.000Z,24.13
2023-03-31T15:30:09.275Z,25.35
2023-03-31T15:32:41.161Z,23.38
2023-03-31T15:35:28.936Z,25.20
2023-03-31T15:37:59.740Z,24.83
2023-03-31T15:40:44.832Z,26.42
2023-03-31T15:43:40.364Z,27.23
2023-03-31T15:46:22.228Z,27.37
2023-03-31T15:48:56.466Z,25.33
2023-03-31T15:51:44.051Z,24.98
2023-03-31T15:54:31.448Z,23.98
2023-03-31T15:57:10.692Z,25.08
2023-03-31T15:59:56.438Z,24.10
2023-03-31T16:02:48.683Z,26.90
2023-03-31T16:05:54.340Z,27.15
2023-03-31T16:08:37.991Z,23.20
2023-03-31T16:11:18.695Z,26.50
2023-03-31T16:13:52.442Z,27.15
2023-03-31T16:16:24.113Z,28.48
2023-03-31T16:19:05.511Z,23.27
2023-03-31T16:21:49.124Z,28.67
2023-03-31T16:24:23.696Z,23.50
2023-03-31T16:26:54.539Z,26.92
2023-03-31T16:29:31.036Z,26.35
2023-03-31T16:32:13.709Z,26.55
2023-03-31T16:35:03.149Z,28.85
2023-03-31T16:37:36.684Z,26.02
2023-03-31T16:40:08.027Z,28.30
2023-03-31T16:42:40.076Z,25.20
2023-03-31T16:45:16.751Z,26.23
2023-03-31T16:47:46.891Z,29.25
2023-03-31T16:50:17.245Z,27.17
2023-03-31T16:52:48.774Z,28.50
2023-03-31T16:55:20.276Z,24.50
2023-03-31T16:57:50.039Z,26.63
2023-03-31T17:00:24.619Z,25.27
2023-03-31T17:02:55.587Z,26.85
2023-03-31T17:05:30.807Z,27.33
2023-03-31T17:10:31.518Z,24.65
2023-03-31T17:13:01.552Z,25.75
2023-03-31T17:15:31.355Z,25.27
2023-03-31T17:18:01.229Z,23.90
2023-03-31T17:20:32.148Z,26.25
2023-03-31T17:23:04.116Z,22.33
2023-03-31T17:25:34.521Z,28.60
2023-03-31T17:28:05.828Z,25.77
2023-03-31T17:30:38.051Z,26.52
2023-03-31T17:33:09.034Z,27.92
2023-03-31T17:35:39.055Z,28.35
2023-03-31T17:38:10.730Z,25.00
2023-03-31T17:40:40.737Z,27.70
2023-03-31T17:43:10.556Z,28.92
2023-03-31T17:45:40.912Z,26.58
2023-03-31T17:48:11.402Z,26.52
2023-03-31T17:50:41.296Z,26.25
2023-03-31T17:53:11.061Z,26.65
2023-03-31T17:55:40.778Z,27.90
2023-03-31T17:58:15.044Z,26.50
2023-03-31T18:00:44.792Z,24.83
2023-03-31T18:03:15.565Z,25.25
2023-03-31T18:05:46.446Z,26.83
2023-03-31T18:08:16.178Z,26.42
2023-03-31T18:10:45.985Z,27.95
2023-03-31T18:13:15.783Z,25.73
2023-03-31T18:15:50.593Z,25.17
2023-03-31T18:18:20.837Z,28.17
2023-03-31T18:20:50.487Z,26.42
2023-03-31T18:23:20.144Z,27.98
2023-03-31T18:25:50.004Z,26.23
2023-03-31T18:28:19.992Z,27.60
2023-03-31T18:30:49.705Z,26.85
2023-03-31T18:33:19.566Z,26.52
2023-03-31T18:35:50.029Z,24.60
2023-03-31T18:38:21.245Z,30.67
2023-03-31T18:40:51.937Z,30.70
2023-03-31T18:43:26.003Z,28.15
2023-03-31T18:45:56.884Z,28.33
2023-03-31T18:48:26.893Z,28.23
2023-03-31T18:50:56.609Z,28.00
2023-03-31T18:53:26.735Z,24.55
2023-03-31T18:56:00.821Z,29.65
2023-03-31T18:58:31.626Z,27.67
2023-03-31T19:01:02.699Z,27.23
2023-03-31T19:06:13.880Z,27.33
2023-03-31T19:08:43.620Z,28.90
2023-03-31T19:11:17.704Z,29.30
2023-03-31T19:13:47.547Z,26.30
2023-03-31T19:16:17.390Z,28.13
2023-03-31T19:18:47.115Z,24.67
2023-03-31T19:21:16.847Z,30.13
2023-03-31T19:23:46.538Z,26.08
2023-03-31T19:26:21.095Z,28.35
2023-03-31T19:28:50.816Z,24.40
2023-03-31T19:31:20.544Z,29.52
2023-03-31T19:33:50.286Z,26.30
2023-03-31T19:36:20.021Z,26.80
2023-03-31T19:38:49.760Z,27.20
2023-03-31T19:41:19.867Z,28.40
2023-03-31T19:43:49.535Z,31.15
2023-03-31T19:46:19.235Z,29.35
2023-03-31T19:48:48.993Z,29.00
2023-03-31T19:51:18.790Z,30.00
2023-03-31T19:53:48.514Z,28.92
2023-03-31T19:56:22.424Z,26.42
2023-03-31T19:58:53.438Z,26.73
2023-03-31T20:01:28.714Z,28.50
2023-03-31T20:03:58.741Z,26.88
2023-03-31T20:06:30.048Z,25.52
2023-03-31T20:09:01.508Z,28.10
2023-03-31T20:11:32.454Z,32.00
2023-03-31T20:14:02.267Z,30.10
2023-03-31T20:16:32.586Z,26.55
2023-03-31T20:19:06.877Z,27.98
2023-03-31T20:21:38.317Z,29.80
2023-03-31T20:24:08.652Z,29.52
2023-03-31T20:26:38.447Z,28.98
2023-03-31T20:29:08.213Z,29.42
2023-03-31T20:31:41.620Z,30.63
2023-03-31T20:34:16.486Z,27.30
2023-03-31T20:36:47.938Z,28.27
2023-03-31T20:39:17.758Z,29.55
2023-03-31T20:41:47.634Z,28.90
2023-03-31T20:44:19.974Z,28.27
2023-03-31T20:46:50.099Z,29.83
2023-03-31T20:49:19.853Z,28.95
2023-03-31T20:51:50.593Z,30.83
2023-03-31T20:54:20.639Z,31.95
2023-03-31T20:56:51.926Z,31.08
2023-03-31T20:59:23.163Z,29.02
2023-03-31T21:01:53.189Z,27.83
2023-03-31T21:04:23.468Z,32.20
2023-03-31T21:06:53.298Z,28.58
2023-03-31T21:09:23.216Z,31.23
2023-03-31T21:11:53.477Z,34.17
2023-03-31T21:14:23.304Z,28.52
2023-03-31T21:16:52.960Z,30.58
2023-03-31T21:19:22.715Z,30.35
2023-03-31T21:21:52.630Z,29.65
2023-03-31T21:24:22.451Z,29.88
2023-03-31T21:26:52.280Z,29.33
2023-03-31T21:29:22.015Z,31.02
2023-03-31T21:31:51.771Z,30.40
2023-03-31T21:34:21.487Z,33.65
2023-03-31T21:36:51.776Z,33.95
2023-03-31T21:39:25.769Z,37.20
2023-03-31T21:41:55.470Z,32.03
2023-03-31T21:44:25.137Z,31.40
2023-03-31T21:46:54.955Z,35.53
2023-03-31T21:49:25.173Z,34.22
2023-03-31T21:51:54.893Z,28.77
2023-03-31T21:54:24.793Z,29.27
2023-03-31T21:56:54.968Z,31.38
2023-03-31T21:59:24.703Z,32.25
2023-03-31T22:01:54.920Z,33.53
2023-03-31T22:04:24.753Z,30.30
2023-03-31T22:06:54.394Z,30.50
2023-03-31T22:09:24.010Z,32.05
2023-03-31T22:11:54.208Z,29.25
2023-03-31T22:14:23.806Z,33.45
2023-03-31T22:16:54.015Z,29.45
2023-03-31T22:19:23.665Z,32.08
2023-03-31T22:21:53.393Z,27.77
2023-03-31T22:24:23.064Z,29.23
2023-03-31T22:26:52.845Z,33.20
2023-03-31T22:29:22.462Z,32.28
2023-03-31T22:31:52.270Z,29.63
2023-03-31T22:34:21.983Z,30.83
2023-03-31T22:36:51.827Z,30.50
2023-03-31T22:39:21.545Z,33.35
2023-03-31T22:41:51.449Z,31.08
2023-03-31T22:44:21.165Z,29.40
2023-03-31T22:46:52.446Z,34.58
2023-03-31T22:49:22.497Z,32.28
2023-03-31T22:51:52.231Z,31.48
2023-03-31T22:54:22.205Z,35.83
2023-03-31T22:56:51.981Z,30.63
2023-03-31T22:59:21.747Z,32.60
2023-03-31T23:01:57.418Z,32.38
2023-03-31T23:04:27.260Z,31.42
2023-03-31T23:06:57.419Z,30.08
2023-03-31T23:09:29.833Z,29.40
2023-03-31T23:11:59.538Z,30.67
2023-03-31T23:14:29.209Z,32.13
2023-03-31T23:16:59.003Z,31.90
2023-03-31T23:19:29.182Z,31.88
2023-03-31T23:21:59.936Z,33.17
2023-03-31T23:24:30.867Z,29.58
2023-03-31T23:27:00.582Z,33.72
2023-03-31T23:29:32.184Z,33.97
2023-03-31T23:32:02.131Z,30.90
2023-03-31T23:34:32.059Z,31.70
2023-03-31T23:37:01.807Z,33.80
2023-03-31T23:39:31.516Z,32.03
2023-03-31T23:42:01.161Z,34.53
2023-03-31T23:44:31.922Z,33.25
2023-03-31T23:47:01.802Z,29.67
2023-03-31T23:49:32.041Z,32.28
2023-03-31T23:52:01.870Z,33.15
2023-03-31T23:54:32.230Z,33.90
2023-03-31T23:57:02.062Z,34.05
2023-03-31T23:59:31.893Z,35.25
